createdAt,value
2018-02-27T00:00:57.400Z,-9.39
2018-02-27T00:02:06.825Z,-9.39
2018-02-27T00:03:16.784Z,-9.43
2018-02-27T00:04:26.726Z,-9.39
2018-02-27T00:05:36.676Z,-9.37
2018-02-27T00:06:46.366Z,-9.28
2018-02-27T00:07:56.316Z,-9.43
2018-02-27T00:09:06.005Z,-9.35
2018-02-27T00:10:15.961Z,-9.43
2018-02-27T00:11:25.926Z,-9.39
2018-02-27T00:12:35.617Z,-9.45
2018-02-27T00:13:45.559Z,-9.46
2018-02-27T00:14:55.517Z,-9.52
2018-02-27T00:16:04.988Z,-9.45
2018-02-27T00:17:14.949Z,-9.49
2018-02-27T00:18:24.633Z,-9.58
2018-02-27T00:19:34.581Z,-9.53
2018-02-27T00:20:44.541Z,-9.56
2018-02-27T00:21:54.224Z,-9.55
2018-02-27T00:23:03.904Z,-9.56
2018-02-27T00:24:13.330Z,-9.55
2018-02-27T00:25:22.758Z,-9.53
2018-02-27T00:26:32.435Z,-9.49
2018-02-27T00:27:42.125Z,-9.65
2018-02-27T00:28:51.808Z,-9.65
2018-02-27T00:30:01.793Z,-9.63
2018-02-27T00:31:11.740Z,-9.53
2018-02-27T00:32:21.424Z,-9.67
2018-02-27T00:33:31.112Z,-9.61
2018-02-27T00:34:40.546Z,-9.64
2018-02-27T00:35:50.490Z,-9.64
2018-02-27T00:37:00.460Z,-9.67
2018-02-27T00:38:10.417Z,-9.71
2018-02-27T00:39:20.370Z,-9.7
2018-02-27T00:40:29.816Z,-9.76
2018-02-27T00:41:39.779Z,-9.76
2018-02-27T00:42:49.513Z,-9.71
2018-02-27T00:43:59.454Z,-9.73
2018-02-27T00:45:08.629Z,-9.73
2018-02-27T00:46:18.579Z,-9.78
2018-02-27T00:47:28.523Z,-9.73
2018-02-27T00:48:37.954Z,-9.81
2018-02-27T00:49:47.639Z,-9.65
2018-02-27T00:50:57.071Z,-9.74
2018-02-27T00:52:07.029Z,-9.84
2018-02-27T00:53:16.716Z,-9.89
2018-02-27T00:54:26.151Z,-9.88
2018-02-27T00:55:36.103Z,-9.86
2018-02-27T00:56:45.273Z,-9.92
2018-02-27T00:57:55.233Z,-9.96
2018-02-27T00:59:05.183Z,-9.92
2018-02-27T01:00:15.141Z,-10
2018-02-27T01:01:25.085Z,-10.02
2018-02-27T01:02:34.775Z,-9.97
2018-02-27T01:03:44.719Z,-10.1
2018-02-27T01:04:54.667Z,-10.1
2018-02-27T01:06:04.623Z,-10.09
2018-02-27T01:07:14.327Z,-10.14
2018-02-27T01:08:24.286Z,-9.97
2018-02-27T01:09:34.245Z,-10.12
2018-02-27T01:10:44.193Z,-10.12
2018-02-27T01:11:53.875Z,-10.03
2018-02-27T01:13:03.562Z,-10.2
2018-02-27T01:14:13.246Z,-10.2
2018-02-27T01:15:23.187Z,-10.14
2018-02-27T01:16:33.136Z,-10.12
2018-02-27T01:17:43.084Z,-10.14
2018-02-27T01:18:53.028Z,-10.18
2018-02-27T01:20:02.980Z,-10.09
2018-02-27T01:21:12.956Z,-10.1
2018-02-27T01:22:22.906Z,-10.17
2018-02-27T01:23:32.846Z,-10.23
2018-02-27T01:24:42.579Z,-10.12
2018-02-27T01:25:52.520Z,-10.1
2018-02-27T01:27:02.584Z,-10.14
2018-02-27T01:28:12.596Z,-10.14
2018-02-27T01:29:22.550Z,-10.09
2018-02-27T01:30:32.497Z,-10.18
2018-02-27T01:31:42.434Z,-10.14
2018-02-27T01:32:52.383Z,-10.1
2018-02-27T01:34:02.336Z,-10.12
2018-02-27T01:35:12.293Z,-10.07
2018-02-27T01:36:22.245Z,-10.1
2018-02-27T01:37:32.192Z,-10.02
2018-02-27T01:38:42.135Z,-10.03
2018-02-27T01:39:51.826Z,-10.05
2018-02-27T01:41:01.771Z,-10.15
2018-02-27T01:42:11.713Z,-10.18
2018-02-27T01:43:21.670Z,-10.17
2018-02-27T01:44:31.616Z,-10.17
2018-02-27T01:45:41.562Z,-10.17
2018-02-27T01:46:51.258Z,-10.17
2018-02-27T01:48:00.945Z,-10.12
2018-02-27T01:49:10.903Z,-10.2
2018-02-27T01:50:20.587Z,-10.12
2018-02-27T01:51:30.018Z,-10.1
2018-02-27T01:52:39.713Z,-10.09
2018-02-27T01:53:49.408Z,-10.2
2018-02-27T01:54:59.093Z,-10.15
2018-02-27T01:56:09.036Z,-10.14
2018-02-27T01:57:18.454Z,-10.1
2018-02-27T01:58:27.883Z,-10.09
2018-02-27T01:59:37.820Z,-10.12
2018-02-27T02:00:47.762Z,-10.14
2018-02-27T02:01:57.471Z,-10.12
2018-02-27T02:03:07.160Z,-10.12
2018-02-27T02:04:16.859Z,-10.15
2018-02-27T02:05:26.560Z,-10.18
2018-02-27T02:06:35.737Z,-10.15
2018-02-27T02:07:45.426Z,-10.17
2018-02-27T02:08:54.858Z,-10.1
2018-02-27T02:10:04.551Z,-10.21
2018-02-27T02:11:14.238Z,-10.15
2018-02-27T02:12:24.185Z,-10.25
2018-02-27T02:13:33.600Z,-10.18
2018-02-27T02:14:43.559Z,-10.25
2018-02-27T02:15:53.242Z,-10.31
2018-02-27T02:17:03.218Z,-10.42
2018-02-27T02:18:12.919Z,-10.38
2018-02-27T02:19:21.837Z,-10.35
2018-02-27T02:20:31.534Z,-10.36
2018-02-27T02:21:40.968Z,-10.35
2018-02-27T02:22:50.675Z,-10.39
2018-02-27T02:24:00.356Z,-10.44
2018-02-27T02:25:10.057Z,-10.44
2018-02-27T02:26:19.491Z,-10.42
2018-02-27T02:27:28.939Z,-10.45
2018-02-27T02:28:38.642Z,-10.48
2018-02-27T02:29:48.597Z,-10.52
2018-02-27T02:30:58.549Z,-10.55
2018-02-27T02:32:08.512Z,-10.57
2018-02-27T02:33:18.211Z,-10.6
2018-02-27T02:34:27.655Z,-10.49
2018-02-27T02:35:37.349Z,-10.48
2018-02-27T02:36:47.300Z,-10.48
2018-02-27T02:37:56.990Z,-10.49
2018-02-27T02:39:06.706Z,-10.6
2018-02-27T02:40:16.654Z,-10.52
2018-02-27T02:41:26.333Z,-10.62
2018-02-27T02:42:35.762Z,-10.59
2018-02-27T02:43:45.705Z,-10.49
2018-02-27T02:44:55.394Z,-10.66
2018-02-27T02:46:04.826Z,-10.53
2018-02-27T02:47:14.520Z,-10.57
2018-02-27T02:48:24.220Z,-10.53
2018-02-27T02:49:33.647Z,-10.57
2018-02-27T02:50:43.335Z,-10.57
2018-02-27T02:51:53.287Z,-10.52
2018-02-27T02:53:02.979Z,-10.55
2018-02-27T02:54:12.928Z,-10.56
2018-02-27T02:55:22.348Z,-10.57
2018-02-27T02:56:32.291Z,-10.56
2018-02-27T02:57:41.970Z,-10.55
2018-02-27T02:58:51.662Z,-10.62
2018-02-27T03:00:01.350Z,-10.65
2018-02-27T03:01:11.039Z,-10.63
2018-02-27T03:02:20.726Z,-10.77
2018-02-27T03:03:30.402Z,-10.62
2018-02-27T03:04:39.848Z,-10.67
2018-02-27T03:05:49.799Z,-10.63
2018-02-27T03:06:59.489Z,-10.59
2018-02-27T03:08:09.174Z,-10.57
2018-02-27T03:09:19.151Z,-10.57
2018-02-27T03:10:29.127Z,-10.77
2018-02-27T03:11:38.821Z,-10.63
2018-02-27T03:12:48.245Z,-10.66
2018-02-27T03:13:58.183Z,-10.78
2018-02-27T03:15:07.606Z,-10.76
2018-02-27T03:16:17.556Z,-10.74
2018-02-27T03:17:26.991Z,-10.78
2018-02-27T03:18:36.450Z,-10.81
2018-02-27T03:19:46.132Z,-10.83
2018-02-27T03:20:55.307Z,-10.78
2018-02-27T03:22:05.002Z,-10.71
2018-02-27T03:23:14.948Z,-10.74
2018-02-27T03:24:24.914Z,-10.77
2018-02-27T03:25:34.863Z,-10.83
2018-02-27T03:26:44.557Z,-10.88
2018-02-27T03:27:54.270Z,-10.85
2018-02-27T03:29:04.215Z,-10.93
2018-02-27T03:30:14.157Z,-10.93
2018-02-27T03:31:24.121Z,-10.92
2018-02-27T03:32:34.084Z,-10.83
2018-02-27T03:33:44.031Z,-10.88
2018-02-27T03:34:53.731Z,-10.96
2018-02-27T03:36:03.668Z,-10.88
2018-02-27T03:37:13.641Z,-10.92
2018-02-27T03:38:23.583Z,-10.92
2018-02-27T03:39:33.537Z,-10.95
2018-02-27T03:40:43.226Z,-11
2018-02-27T03:41:53.181Z,-10.95
2018-02-27T03:43:02.623Z,-10.93
2018-02-27T03:44:12.055Z,-10.95
2018-02-27T03:45:21.218Z,-10.97
2018-02-27T03:46:31.160Z,-10.87
2018-02-27T03:47:41.118Z,-10.97
2018-02-27T03:48:50.826Z,-10.97
2018-02-27T03:50:00.775Z,-10.9
2018-02-27T03:51:10.733Z,-10.83
2018-02-27T03:52:20.431Z,-10.81
2018-02-27T03:53:30.394Z,-10.95
2018-02-27T03:54:40.085Z,-10.77
2018-02-27T03:55:49.769Z,-10.88
2018-02-27T03:56:59.715Z,-10.76
2018-02-27T03:58:09.659Z,-10.77
2018-02-27T03:59:19.619Z,-10.8
2018-02-27T04:00:29.567Z,-10.78
2018-02-27T04:01:38.995Z,-10.81
2018-02-27T04:02:48.936Z,-10.88
2018-02-27T04:03:58.617Z,-10.77
2018-02-27T04:05:08.313Z,-10.9
2018-02-27T04:06:17.485Z,-10.87
2018-02-27T04:07:27.172Z,-10.9
2018-02-27T04:08:36.854Z,-10.9
2018-02-27T04:09:46.803Z,-10.93
2018-02-27T04:10:56.489Z,-10.97
2018-02-27T04:12:05.929Z,-10.96
2018-02-27T04:13:15.607Z,-10.97
2018-02-27T04:14:25.552Z,-10.92
2018-02-27T04:15:34.987Z,-10.99
2018-02-27T04:16:44.485Z,-10.88
2018-02-27T04:17:53.898Z,-10.99
2018-02-27T04:19:03.839Z,-10.96
2018-02-27T04:20:13.800Z,-10.95
2018-02-27T04:21:23.485Z,-10.87
2018-02-27T04:22:33.164Z,-10.88
2018-02-27T04:23:43.120Z,-10.83
2018-02-27T04:24:52.831Z,-10.78
2018-02-27T04:26:02.518Z,-10.85
2018-02-27T04:27:12.208Z,-10.83
2018-02-27T04:28:22.161Z,-10.81
2018-02-27T04:29:32.211Z,-10.78
2018-02-27T04:30:41.902Z,-10.83
2018-02-27T04:31:51.845Z,-10.73
2018-02-27T04:33:01.526Z,-10.74
2018-02-27T04:34:11.210Z,-10.77
2018-02-27T04:35:21.159Z,-10.81
2018-02-27T04:36:31.105Z,-10.78
2018-02-27T04:37:40.794Z,-10.8
2018-02-27T04:38:50.473Z,-10.74
2018-02-27T04:40:00.469Z,-10.88
2018-02-27T04:41:10.181Z,-10.8
2018-02-27T04:42:20.119Z,-10.8
2018-02-27T04:43:29.302Z,-10.83
2018-02-27T04:44:39.254Z,-10.83
2018-02-27T04:45:48.944Z,-10.8
2018-02-27T04:46:58.629Z,-10.85
2018-02-27T04:48:08.577Z,-10.78
2018-02-27T04:49:18.003Z,-10.74
2018-02-27T04:50:27.698Z,-10.83
2018-02-27T04:51:37.398Z,-10.76
2018-02-27T04:52:46.851Z,-10.74
2018-02-27T04:53:56.271Z,-10.83
2018-02-27T04:55:06.210Z,-10.76
2018-02-27T04:56:15.887Z,-10.81
2018-02-27T04:57:25.324Z,-10.85
2018-02-27T04:58:35.010Z,-10.73
2018-02-27T04:59:44.959Z,-10.67
2018-02-27T05:00:54.956Z,-10.81
2018-02-27T05:02:04.903Z,-10.78
2018-02-27T05:03:14.872Z,-10.85
2018-02-27T05:04:24.819Z,-10.76
2018-02-27T05:05:34.761Z,-10.71
2018-02-27T05:06:44.714Z,-10.76
2018-02-27T05:07:54.670Z,-10.59
2018-02-27T05:09:04.113Z,-10.59
2018-02-27T05:10:13.805Z,-10.55
2018-02-27T05:11:23.236Z,-10.49
2018-02-27T05:12:33.207Z,-10.44
2018-02-27T05:13:42.901Z,-10.59
2018-02-27T05:14:52.604Z,-10.38
2018-02-27T05:16:02.302Z,-10.42
2018-02-27T05:17:11.990Z,-10.38
2018-02-27T05:18:21.676Z,-10.28
2018-02-27T05:19:31.424Z,-10.18
2018-02-27T05:20:41.127Z,-10.12
2018-02-27T05:21:51.073Z,-10.15
2018-02-27T05:23:00.507Z,-10.05
2018-02-27T05:24:10.465Z,-10.1
2018-02-27T05:25:19.902Z,-10.06
2018-02-27T05:26:29.843Z,-10.02
2018-02-27T05:27:39.548Z,-9.94
2018-02-27T05:28:49.228Z,-9.96
2018-02-27T05:29:59.178Z,-9.91
2018-02-27T05:31:08.861Z,-9.89
2018-02-27T05:32:18.813Z,-9.88
2018-02-27T05:33:28.237Z,-9.88
2018-02-27T05:34:38.258Z,-9.94
2018-02-27T05:35:47.689Z,-9.88
2018-02-27T05:36:57.371Z,-9.85
2018-02-27T05:38:07.379Z,-9.71
2018-02-27T05:39:17.329Z,-9.76
2018-02-27T05:40:27.278Z,-9.71
2018-02-27T05:41:36.971Z,-9.74
2018-02-27T05:42:46.664Z,-9.74
2018-02-27T05:43:56.352Z,-9.74
2018-02-27T05:45:06.552Z,-9.74
2018-02-27T05:46:16.502Z,-9.7
2018-02-27T05:47:26.455Z,-9.7
2018-02-27T05:48:36.408Z,-9.76
2018-02-27T05:49:46.364Z,-9.7
2018-02-27T05:50:56.318Z,-9.78
2018-02-27T05:52:06.283Z,-9.67
2018-02-27T05:53:16.231Z,-9.7
2018-02-27T05:54:26.182Z,-9.64
2018-02-27T05:55:36.126Z,-9.79
2018-02-27T05:56:46.077Z,-9.67
2018-02-27T05:57:56.038Z,-9.88
2018-02-27T05:59:05.715Z,-9.84
2018-02-27T06:00:15.671Z,-9.73
2018-02-27T06:01:25.372Z,-9.76
2018-02-27T06:02:34.841Z,-9.76
2018-02-27T06:03:44.873Z,-9.76
2018-02-27T06:04:54.581Z,-9.84
2018-02-27T06:06:04.588Z,-9.85
2018-02-27T06:07:14.559Z,-9.86
2018-02-27T06:08:24.261Z,-9.74
2018-02-27T06:09:34.220Z,-9.89
2018-02-27T06:10:43.918Z,-9.84
2018-02-27T06:11:53.871Z,-9.79
2018-02-27T06:13:03.593Z,-9.85
2018-02-27T06:14:13.624Z,-9.89
2018-02-27T06:15:23.562Z,-9.84
2018-02-27T06:16:33.509Z,-9.89
2018-02-27T06:17:43.461Z,-9.88
2018-02-27T06:18:53.160Z,-9.78
2018-02-27T06:20:02.860Z,-9.7
2018-02-27T06:21:12.555Z,-9.76
2018-02-27T06:22:21.991Z,-9.78
2018-02-27T06:23:31.681Z,-9.78
2018-02-27T06:24:41.639Z,-9.7
2018-02-27T06:25:51.074Z,-9.74
2018-02-27T06:27:01.021Z,-9.7
2018-02-27T06:28:10.969Z,-9.68
2018-02-27T06:29:20.141Z,-9.7
2018-02-27T06:30:29.836Z,-9.63
2018-02-27T06:31:39.795Z,-9.56
2018-02-27T06:32:49.735Z,-9.61
2018-02-27T06:33:59.426Z,-9.58
2018-02-27T06:35:09.669Z,-9.61
2018-02-27T06:36:19.375Z,-9.55
2018-02-27T06:37:29.347Z,-9.55
2018-02-27T06:38:39.313Z,-9.47
2018-02-27T06:39:49.262Z,-9.45
2018-02-27T06:40:58.964Z,-9.39
2018-02-27T06:42:08.647Z,-9.43
2018-02-27T06:43:18.609Z,-9.41
2018-02-27T06:44:28.295Z,-9.45
2018-02-27T06:45:38.314Z,-9.41
2018-02-27T06:46:48.013Z,-9.39
2018-02-27T06:47:57.971Z,-9.39
2018-02-27T06:49:07.685Z,-9.33
2018-02-27T06:50:17.851Z,-9.39
2018-02-27T06:51:27.540Z,-9.3
2018-02-27T06:52:37.501Z,-9.28
2018-02-27T06:53:47.449Z,-9.17
2018-02-27T06:54:57.157Z,-9.25
2018-02-27T06:56:07.118Z,-9.28
2018-02-27T06:57:16.806Z,-9.14
2018-02-27T06:58:26.249Z,-9.17
2018-02-27T06:59:36.196Z,-9.13
2018-02-27T07:00:45.897Z,-9.14
2018-02-27T07:01:55.600Z,-9.12
2018-02-27T07:03:05.284Z,-9.16
2018-02-27T07:04:15.176Z,-9.06
2018-02-27T07:05:24.888Z,-8.94
2018-02-27T07:06:34.063Z,-8.98
2018-02-27T07:07:44.016Z,-8.94
2018-02-27T07:08:53.714Z,-8.86
2018-02-27T07:10:03.418Z,-8.89
2018-02-27T07:11:12.840Z,-8.84
2018-02-27T07:12:22.543Z,-8.91
2018-02-27T07:13:32.552Z,-8.85
2018-02-27T07:14:42.247Z,-8.74
2018-02-27T07:15:51.681Z,-8.8
2018-02-27T07:17:01.620Z,-8.75
2018-02-27T07:18:10.793Z,-8.8
2018-02-27T07:19:20.485Z,-8.68
2018-02-27T07:20:29.928Z,-8.68
2018-02-27T07:21:39.642Z,-8.62
2018-02-27T07:22:49.100Z,-8.62
2018-02-27T07:23:58.786Z,-8.62
2018-02-27T07:25:08.472Z,-8.59
2018-02-27T07:26:18.409Z,-8.52
2018-02-27T07:27:28.112Z,-8.49
2018-02-27T07:28:37.810Z,-8.52
2018-02-27T07:29:47.754Z,-8.44
2018-02-27T07:30:57.728Z,-8.44
2018-02-27T07:32:07.691Z,-8.41
2018-02-27T07:33:17.397Z,-8.34
2018-02-27T07:34:27.090Z,-8.34
2018-02-27T07:35:36.786Z,-8.34
2018-02-27T07:36:46.750Z,-8.31
2018-02-27T07:37:56.454Z,-8.29
2018-02-27T07:39:06.156Z,-8.28
2018-02-27T07:40:16.078Z,-8.14
2018-02-27T07:41:25.782Z,-8.17
2018-02-27T07:42:35.745Z,-8.15
2018-02-27T07:43:45.442Z,-8.14
2018-02-27T07:44:55.398Z,-8.13
2018-02-27T07:46:04.842Z,-8.1
2018-02-27T07:47:14.880Z,-8.11
2018-02-27T07:48:25.048Z,-8.05
2018-02-27T07:49:35.061Z,-7.98
2018-02-27T07:50:45.022Z,-8.02
2018-02-27T07:51:54.714Z,-7.96
2018-02-27T07:53:04.444Z,-7.99
2018-02-27T07:54:14.134Z,-7.95
2018-02-27T07:55:23.567Z,-7.92
2018-02-27T07:56:33.519Z,-7.91
2018-02-27T07:57:43.227Z,-7.88
2018-02-27T07:58:53.181Z,-7.91
2018-02-27T08:00:02.890Z,-7.92
2018-02-27T08:01:12.896Z,-7.89
2018-02-27T08:02:22.334Z,-7.81
2018-02-27T08:03:32.278Z,-7.85
2018-02-27T08:04:42.235Z,-7.85
2018-02-27T08:05:51.670Z,-7.85
2018-02-27T08:07:00.847Z,-7.94
2018-02-27T08:08:10.549Z,-7.96
2018-02-27T08:09:20.237Z,-7.92
2018-02-27T08:10:30.229Z,-7.98
2018-02-27T08:11:40.195Z,-7.98
2018-02-27T08:12:50.143Z,-8.05
2018-02-27T08:14:00.113Z,-8.05
2018-02-27T08:15:09.818Z,-8.05
2018-02-27T08:16:19.845Z,-8.02
2018-02-27T08:17:29.552Z,-8.07
2018-02-27T08:18:39.286Z,-7.95
2018-02-27T08:19:49.251Z,-7.94
2018-02-27T08:20:58.695Z,-7.96
2018-02-27T08:22:08.396Z,-7.85
2018-02-27T08:23:17.843Z,-7.78
2018-02-27T08:24:27.540Z,-7.71
2018-02-27T08:25:37.776Z,-7.63
2018-02-27T08:26:47.215Z,-7.64
2018-02-27T08:27:56.650Z,-7.66
2018-02-27T08:29:06.369Z,-7.62
2018-02-27T08:30:16.071Z,-7.52
2018-02-27T08:31:26.050Z,-7.55
2018-02-27T08:32:35.746Z,-7.5
2018-02-27T08:33:45.738Z,-7.64
2018-02-27T08:34:55.479Z,-7.57
2018-02-27T08:36:04.917Z,-7.5
2018-02-27T08:37:14.881Z,-7.45
2018-02-27T08:38:24.336Z,-7.39
2018-02-27T08:39:34.053Z,-7.41
2018-02-27T08:40:43.533Z,-7.41
2018-02-27T08:41:53.248Z,-7.3
2018-02-27T08:43:03.244Z,-7.09
2018-02-27T08:44:13.011Z,-7.09
2018-02-27T08:45:22.851Z,-7.13
2018-02-27T08:46:32.367Z,-7.14
2018-02-27T08:47:42.076Z,-7.15
2018-02-27T08:48:52.048Z,-7.18
2018-02-27T08:50:02.020Z,-7.21
2018-02-27T08:51:11.992Z,-7.25
2018-02-27T08:52:21.969Z,-7.27
2018-02-27T08:53:31.955Z,-7.21
2018-02-27T08:54:41.667Z,-7.13
2018-02-27T08:55:51.391Z,-7.13
2018-02-27T08:57:01.336Z,-7.15
2018-02-27T08:58:11.033Z,-7.09
2018-02-27T08:59:20.737Z,-7.1
2018-02-27T09:00:30.180Z,-7
2018-02-27T09:01:39.883Z,-7.03
2018-02-27T09:02:49.613Z,-6.97
2018-02-27T09:03:59.333Z,-6.88
2018-02-27T09:05:09.300Z,-6.88
2018-02-27T09:06:19.276Z,-6.91
2018-02-27T09:07:28.981Z,-6.79
2018-02-27T09:08:38.710Z,-6.81
2018-02-27T09:09:48.452Z,-6.91
2018-02-27T09:10:58.162Z,-6.88
2018-02-27T09:12:07.883Z,-6.91
2018-02-27T09:13:17.868Z,-6.86
2018-02-27T09:14:27.566Z,-6.81
2018-02-27T09:15:37.266Z,-6.67
2018-02-27T09:16:47.265Z,-6.48
2018-02-27T09:17:57.244Z,-6.41
2018-02-27T09:19:07.203Z,-6.21
2018-02-27T09:20:16.719Z,-6.09
2018-02-27T09:21:25.880Z,-5.99
2018-02-27T09:22:35.859Z,-5.92
2018-02-27T09:23:45.770Z,-5.99
2018-02-27T09:24:55.498Z,-5.81
2018-02-27T09:26:05.209Z,-5.91
2018-02-27T09:27:14.678Z,-5.88
2018-02-27T09:28:24.661Z,-5.81
2018-02-27T09:29:34.762Z,-5.84
2018-02-27T09:30:44.797Z,-5.68
2018-02-27T09:31:54.794Z,-5.46
2018-02-27T09:33:04.491Z,-5.23
2018-02-27T09:34:14.477Z,-4.87
2018-02-27T09:35:23.932Z,-4.8
2018-02-27T09:36:33.914Z,-4.74
2018-02-27T09:37:43.882Z,-4.73
2018-02-27T09:38:52.936Z,-4.63
2018-02-27T09:40:02.914Z,-4.69
2018-02-27T09:41:12.666Z,-4.91
2018-02-27T09:42:22.424Z,-5.02
2018-02-27T09:43:32.136Z,-5
2018-02-27T09:44:41.866Z,-4.95
2018-02-27T09:45:51.871Z,-4.55
2018-02-27T09:47:01.856Z,-4.41
2018-02-27T09:48:11.580Z,-4.2
2018-02-27T09:49:21.584Z,-3.83
2018-02-27T09:50:31.321Z,-3.56
2018-02-27T09:51:41.029Z,-3.48
2018-02-27T09:52:50.754Z,-3.32
2018-02-27T09:54:00.212Z,-3.36
2018-02-27T09:55:10.199Z,-2.99
2018-02-27T09:56:19.909Z,-2.51
2018-02-27T09:57:29.928Z,-2.5
2018-02-27T09:58:39.400Z,-2.57
2018-02-27T09:59:48.958Z,-2.8
2018-02-27T10:00:58.933Z,-2.72
2018-02-27T10:02:08.921Z,-3.04
2018-02-27T10:03:18.900Z,-3.27
2018-02-27T10:04:28.620Z,-3.66
2018-02-27T10:05:38.376Z,-3.55
2018-02-27T10:06:48.083Z,-3.15
2018-02-27T10:07:57.806Z,-3.19
2018-02-27T10:09:07.523Z,-3.02
2018-02-27T10:10:17.265Z,-3.01
2018-02-27T10:11:26.982Z,-2.68
2018-02-27T10:12:36.183Z,-2.5
2018-02-27T10:13:46.158Z,-2.47
2018-02-27T10:14:55.897Z,-2.39
2018-02-27T10:16:05.910Z,-1.99
2018-02-27T10:17:15.439Z,-1.92
2018-02-27T10:18:24.901Z,-1.78
2018-02-27T10:19:34.362Z,-1.6
2018-02-27T10:20:44.089Z,-1.32
2018-02-27T10:21:54.075Z,-1.03
2018-02-27T10:23:03.780Z,-0.97
2018-02-27T10:24:13.529Z,-1.03
2018-02-27T10:25:23.518Z,-1.04
2018-02-27T10:26:33.513Z,-1.06
2018-02-27T10:27:43.341Z,-1.03
2018-02-27T10:28:53.054Z,-1.14
2018-02-27T10:30:02.532Z,-1.21
2018-02-27T10:31:12.546Z,-1.36
2018-02-27T10:32:22.293Z,-1.35
2018-02-27T10:33:32.018Z,-1.3
2018-02-27T10:34:42.023Z,-1.09
2018-02-27T10:35:52.082Z,-0.84
2018-02-27T10:37:01.817Z,-0.69
2018-02-27T10:38:11.285Z,-0.57
2018-02-27T10:39:21.037Z,-0.6
2018-02-27T10:40:30.783Z,-0.94
2018-02-27T10:41:40.296Z,-1.39
2018-02-27T10:42:50.012Z,-1.21
2018-02-27T10:44:00.013Z,-1.38
2018-02-27T10:45:10.026Z,-1.46
2018-02-27T10:46:19.855Z,-1.5
2018-02-27T10:47:29.993Z,-1.33
2018-02-27T10:48:39.449Z,-1.24
2018-02-27T10:49:49.209Z,-0.94
2018-02-27T10:50:58.962Z,-0.56
2018-02-27T10:52:09.181Z,-0.27
2018-02-27T10:53:19.272Z,-0.09
2018-02-27T10:54:29.029Z,0
2018-02-27T10:55:39.039Z,-0.12
2018-02-27T10:56:49.043Z,-0.54
2018-02-27T10:57:58.584Z,-0.8
2018-02-27T10:59:08.043Z,-0.78
2018-02-27T11:00:18.310Z,-1.04
2018-02-27T11:01:28.061Z,-1.03
2018-02-27T11:02:37.546Z,-1.06
2018-02-27T11:03:47.318Z,-1.33
2018-02-27T11:04:57.292Z,-1.57
2018-02-27T11:06:06.492Z,-1.51
2018-02-27T11:07:16.487Z,-1.75
2018-02-27T11:08:25.667Z,-1.57
2018-02-27T11:09:35.691Z,-1.29
2018-02-27T11:10:45.151Z,-1.35
2018-02-27T11:11:54.587Z,-1.25
2018-02-27T11:13:04.071Z,-1.35
2018-02-27T11:14:13.583Z,-1.45
2018-02-27T11:15:23.334Z,-1.36
2018-02-27T11:16:32.805Z,-1.5
2018-02-27T11:17:42.575Z,-1.96
2018-02-27T11:18:52.320Z,-2.2
2018-02-27T11:20:02.162Z,-2.44
2018-02-27T11:21:11.915Z,-2.25
2018-02-27T11:22:21.854Z,-1.86
2018-02-27T11:23:31.830Z,-1.87
2018-02-27T11:24:41.815Z,-1.72
2018-02-27T11:25:51.814Z,-1.63
2018-02-27T11:27:01.317Z,-1.09
2018-02-27T11:28:11.305Z,-0.89
2018-02-27T11:29:21.306Z,-0.66
2018-02-27T11:30:31.056Z,-0.59
2018-02-27T11:31:40.513Z,-0.75
2018-02-27T11:32:49.999Z,-0.64
2018-02-27T11:34:00.017Z,-0.85
2018-02-27T11:35:09.992Z,-0.75
2018-02-27T11:36:19.833Z,-0.72
2018-02-27T11:37:28.971Z,-0.35
2018-02-27T11:38:38.699Z,-0.35
2018-02-27T11:39:48.412Z,-0.41
2018-02-27T11:40:58.417Z,-0.23
2018-02-27T11:42:08.142Z,-0.15
2018-02-27T11:43:17.346Z,0.13
2018-02-27T11:44:27.351Z,0.51
2018-02-27T11:45:37.105Z,1
2018-02-27T11:46:46.582Z,1.28
2018-02-27T11:47:56.590Z,1.61
2018-02-27T11:49:05.795Z,1.45
2018-02-27T11:50:15.794Z,0.7
2018-02-27T11:51:25.525Z,0.51
2018-02-27T11:52:35.522Z,0.2
2018-02-27T11:53:45.268Z,-0.26
2018-02-27T11:54:55.248Z,-0.56
2018-02-27T11:56:04.972Z,-0.63
2018-02-27T11:57:14.456Z,-0.49
2018-02-27T11:58:24.169Z,-0.28
2018-02-27T11:59:33.892Z,-0.18
2018-02-27T12:00:43.923Z,-0.17
2018-02-27T12:01:53.639Z,-0.05
2018-02-27T12:03:03.611Z,0.33
2018-02-27T12:04:13.316Z,0.52
2018-02-27T12:05:23.319Z,1.06
2018-02-27T12:06:32.776Z,1.48
2018-02-27T12:07:42.756Z,1.39
2018-02-27T12:08:52.732Z,0.85
2018-02-27T12:10:02.451Z,0.61
2018-02-27T12:11:11.901Z,0.29
2018-02-27T12:12:21.611Z,-0.17
2018-02-27T12:13:31.331Z,-0.03
2018-02-27T12:14:40.790Z,0.39
2018-02-27T12:15:50.792Z,0.99
2018-02-27T12:17:00.242Z,1.27
2018-02-27T12:18:10.215Z,1.03
2018-02-27T12:19:19.941Z,0.56
2018-02-27T12:20:29.647Z,0.34
2018-02-27T12:21:39.112Z,-0.15
2018-02-27T12:22:48.877Z,-0.18
2018-02-27T12:23:58.845Z,-0.36
2018-02-27T12:25:08.552Z,-0.56
2018-02-27T12:26:17.760Z,-0.72
2018-02-27T12:27:27.737Z,-0.56
2018-02-27T12:28:37.463Z,-0.59
2018-02-27T12:29:47.443Z,-0.57
2018-02-27T12:30:57.171Z,-0.53
2018-02-27T12:32:06.896Z,-0.72
2018-02-27T12:33:16.672Z,-0.59
2018-02-27T12:34:26.412Z,-0.35
2018-02-27T12:35:36.190Z,-0.2
2018-02-27T12:36:45.919Z,-0.13
2018-02-27T12:37:55.928Z,-0.31
2018-02-27T12:39:06.007Z,-0.49
2018-02-27T12:40:15.739Z,-0.51
2018-02-27T12:41:25.716Z,-0.39
2018-02-27T12:42:35.715Z,-0.54
2018-02-27T12:43:45.695Z,-1.01
2018-02-27T12:44:55.415Z,-0.99
2018-02-27T12:46:05.392Z,-1.27
2018-02-27T12:47:15.419Z,-1.29
2018-02-27T12:48:25.117Z,-1.46
2018-02-27T12:49:35.112Z,-1.74
2018-02-27T12:50:45.082Z,-1.61
2018-02-27T12:51:54.804Z,-1.5
2018-02-27T12:53:04.769Z,-1.33
2018-02-27T12:54:14.225Z,-1.21
2018-02-27T12:55:23.934Z,-1.09
2018-02-27T12:56:33.643Z,-0.89
2018-02-27T12:57:43.344Z,-0.77
2018-02-27T12:58:53.326Z,-0.38
2018-02-27T13:00:02.557Z,-0.39
2018-02-27T13:01:11.996Z,-0.42
2018-02-27T13:02:21.955Z,-0.59
2018-02-27T13:03:31.955Z,-0.93
2018-02-27T13:04:41.666Z,-1.19
2018-02-27T13:05:51.679Z,-1.07
2018-02-27T13:07:01.896Z,-1.07
2018-02-27T13:08:11.605Z,-1.18
2018-02-27T13:09:21.569Z,-1.3
2018-02-27T13:10:31.547Z,-1.15
2018-02-27T13:11:41.520Z,-1.06
2018-02-27T13:12:51.252Z,-1.03
2018-02-27T13:14:00.991Z,-0.85
2018-02-27T13:15:10.451Z,-0.69
2018-02-27T13:16:19.889Z,-0.69
2018-02-27T13:17:29.318Z,-0.6
2018-02-27T13:18:38.743Z,-0.57
2018-02-27T13:19:48.677Z,-0.54
2018-02-27T13:20:58.383Z,-0.63
2018-02-27T13:22:08.085Z,-0.48
2018-02-27T13:23:17.829Z,-0.35
2018-02-27T13:24:27.275Z,-0.12
2018-02-27T13:25:37.322Z,-0.15
2018-02-27T13:26:47.341Z,-0.13
2018-02-27T13:27:57.311Z,-0.18
2018-02-27T13:29:07.075Z,-0.03
2018-02-27T13:30:16.780Z,0.19
2018-02-27T13:31:26.945Z,0.47
2018-02-27T13:32:37.004Z,0.23
2018-02-27T13:33:47.105Z,0.19
2018-02-27T13:34:56.838Z,-0.09
2018-02-27T13:36:07.018Z,-0.36
2018-02-27T13:37:16.996Z,-0.57
2018-02-27T13:38:26.951Z,-0.81
2018-02-27T13:39:36.954Z,-0.8
2018-02-27T13:40:46.658Z,-1.04
2018-02-27T13:41:56.680Z,-1.01
2018-02-27T13:43:06.710Z,-0.8
2018-02-27T13:44:16.687Z,-0.82
2018-02-27T13:45:26.400Z,-0.72
2018-02-27T13:46:36.141Z,-0.67
2018-02-27T13:47:46.147Z,-0.6
2018-02-27T13:49:03.999Z,-0.56
2018-02-27T13:50:14.048Z,-0.53
2018-02-27T13:51:23.743Z,-0.59
2018-02-27T13:52:33.193Z,-0.59
2018-02-27T13:53:42.917Z,-0.56
2018-02-27T13:54:52.888Z,-0.53
2018-02-27T13:56:02.437Z,-0.53
2018-02-27T13:57:12.193Z,-0.54
2018-02-27T13:58:21.898Z,-0.35
2018-02-27T13:59:31.875Z,-0.28
2018-02-27T14:00:41.579Z,-0.46
2018-02-27T14:01:51.033Z,-0.6
2018-02-27T14:03:00.225Z,-0.49
2018-02-27T14:04:10.222Z,-0.57
2018-02-27T14:05:20.199Z,-0.59
2018-02-27T14:06:30.202Z,-0.41
2018-02-27T14:07:40.183Z,-0.38
2018-02-27T14:08:50.158Z,-0.2
2018-02-27T14:10:00.317Z,-0.31
2018-02-27T14:11:10.299Z,-0.36
2018-02-27T14:12:20.542Z,-0.57
2018-02-27T14:13:30.526Z,-0.67
2018-02-27T14:14:40.487Z,-0.82
2018-02-27T14:15:49.968Z,-0.85
2018-02-27T14:16:59.952Z,-0.89
2018-02-27T14:18:09.404Z,-1.03
2018-02-27T14:19:19.372Z,-0.96
2018-02-27T14:20:29.365Z,-1.09
2018-02-27T14:21:39.344Z,-1.07
2018-02-27T14:22:48.784Z,-1.24
2018-02-27T14:23:58.746Z,-1.29
2018-02-27T14:25:08.771Z,-1.25
2018-02-27T14:26:18.479Z,-1.11
2018-02-27T14:27:28.447Z,-1.06
2018-02-27T14:28:38.155Z,-1.06
2018-02-27T14:29:48.120Z,-0.82
2018-02-27T14:30:58.083Z,-1.04
2018-02-27T14:32:08.084Z,-0.97
2018-02-27T14:33:17.519Z,-1.04
2018-02-27T14:34:26.716Z,-1.19
2018-02-27T14:35:36.699Z,-1.24
2018-02-27T14:36:46.729Z,-1.22
2018-02-27T14:37:56.435Z,-1.06
2018-02-27T14:39:06.143Z,-1.12
2018-02-27T14:40:16.106Z,-1.3
2018-02-27T14:41:26.081Z,-1.18
2018-02-27T14:42:35.522Z,-1.22
2018-02-27T14:43:45.495Z,-1.15
2018-02-27T14:44:55.199Z,-1.33
2018-02-27T14:46:05.173Z,-1.56
2018-02-27T14:47:14.882Z,-1.51
2018-02-27T14:48:24.584Z,-1.74
2018-02-27T14:49:34.020Z,-2.04
2018-02-27T14:50:44.013Z,-2.17
2018-02-27T14:51:52.939Z,-2.13
2018-02-27T14:53:02.121Z,-2.15
2018-02-27T14:54:11.619Z,-2.14